Terminal Aerodrome Forecast
Issued by NWS Bismarck, ND

Home | Current Version | Previous Version | Graphics & Text | Print | Product List | Glossary On
Versions: 1 2 3 4 5 6 7 8 9 10 11 12 13 14 15 16 17 18 19 20 21 22
000
FTUS43 KBIS 270500
TAFBIS
TAF
KBIS 270538Z 2706/2806 08005KT P6SM SCT015 SCT060
      TEMPO 2706/2709 BKN015 OVC030
     FM270900 10005KT P6SM BKN012 OVC025
     FM271500 13008KT P6SM -SN SCT005 OVC012
     FM271800 15012KT 4SM -SN BKN005 OVC012
     FM272100 15014KT 3SM -FZRASN SCT005 OVC015
     FM280300 14010KT P6SM SCT015 SCT070=

USA.gov is the U.S. government's official web portal to all federal, state and local government web resources and services.